createdAt,value
2018-11-22T00:00:28.617Z,95125.28
2018-11-22T00:02:58.038Z,95129.22
2018-11-22T00:05:26.066Z,95125.84
2018-11-22T00:07:55.184Z,95125.09
2018-11-22T00:10:23.725Z,95128.44
2018-11-22T00:12:52.537Z,95133.08
2018-11-22T00:15:22.078Z,95138.08
2018-11-22T00:17:51.281Z,95143.41
2018-11-22T00:20:19.320Z,95136.92
2018-11-22T00:22:47.438Z,95141.93
2018-11-22T00:25:16.563Z,95139.86
2018-11-22T00:27:44.720Z,95141.62
2018-11-22T00:30:14.624Z,95136.91
2018-11-22T00:32:42.767Z,95140.83
2018-11-22T00:35:12.267Z,95126.45
2018-11-22T00:37:41.708Z,95130.92
2018-11-22T00:40:12.289Z,95138.88
2018-11-22T00:42:40.797Z,95132.01
2018-11-22T00:45:10.403Z,95135.14
2018-11-22T00:47:38.604Z,95129.82
2018-11-22T00:50:08.094Z,95125.97
2018-11-22T00:52:36.262Z,95134.55
2018-11-22T00:55:04.735Z,95136.01
2018-11-22T00:57:33.552Z,95131.08
2018-11-22T01:00:01.607Z,95139.76
2018-11-22T01:02:29.766Z,95140.16
2018-11-22T01:04:57.790Z,95134.75
2018-11-22T01:07:25.864Z,95138.97
2018-11-22T01:09:54.244Z,95138.26
2018-11-22T01:12:22.307Z,95137.67
2018-11-22T01:14:50.420Z,95145.11
2018-11-22T01:17:18.451Z,95140.55
2018-11-22T01:19:46.581Z,95147.23
2018-11-22T01:22:14.625Z,95143.11
2018-11-22T01:24:42.770Z,95144.14
2018-11-22T01:27:10.837Z,95145.09
2018-11-22T01:29:39.003Z,95141.70
2018-11-22T01:32:07.146Z,95136.45
2018-11-22T01:34:35.314Z,95134.12
2018-11-22T01:37:03.369Z,95134.95
2018-11-22T01:39:31.610Z,95132.54
2018-11-22T01:41:59.674Z,95131.28
2018-11-22T01:44:27.820Z,95131.48
2018-11-22T01:46:55.840Z,95127.52
2018-11-22T01:49:24.193Z,95134.27
2018-11-22T01:51:52.241Z,95131.09
2018-11-22T01:54:20.357Z,95131.39
2018-11-22T01:56:48.376Z,95123.11
2018-11-22T01:59:16.772Z,95124.11
2018-11-22T02:01:45.513Z,95125.48
2018-11-22T02:04:13.576Z,95127.74
2018-11-22T02:06:42.059Z,95119.62
2018-11-22T02:09:10.900Z,95117.41
2018-11-22T02:11:40.396Z,95122.56
2018-11-22T02:14:08.469Z,95124.63
2018-11-22T02:16:36.914Z,95126.77
2018-11-22T02:19:05.026Z,95127.55
2018-11-22T02:21:33.563Z,95122.53
2018-11-22T02:24:02.330Z,95124.91
2018-11-22T02:26:30.646Z,95122.72
2018-11-22T02:28:58.667Z,95127.91
2018-11-22T02:31:27.499Z,95127.45
2018-11-22T02:33:55.513Z,95118.98
2018-11-22T02:36:23.546Z,95123.39
2018-11-22T02:38:51.699Z,95126.19
2018-11-22T02:41:19.961Z,95122.63
2018-11-22T02:43:48.272Z,95123.80
2018-11-22T02:46:16.302Z,95123.67
2018-11-22T02:48:44.440Z,95128.43
2018-11-22T02:51:12.482Z,95124.52
2018-11-22T02:53:40.654Z,95125.95
2018-11-22T02:56:08.715Z,95126.12
2018-11-22T02:58:36.836Z,95117.05
2018-11-22T03:01:04.966Z,95113.54
2018-11-22T03:03:33.074Z,95119.78
2018-11-22T03:06:01.107Z,95125.30
2018-11-22T03:08:29.338Z,95119.89
2018-11-22T03:10:57.372Z,95116.94
2018-11-22T03:13:25.534Z,95112.80
2018-11-22T03:15:53.640Z,95119.48
2018-11-22T03:18:21.754Z,95116.37
2018-11-22T03:20:49.809Z,95116.39
2018-11-22T03:23:17.923Z,95111.64
2018-11-22T03:25:45.962Z,95114.67
2018-11-22T03:28:14.341Z,95115.63
2018-11-22T03:30:42.386Z,95113.25
2018-11-22T03:33:10.479Z,95109.86
2018-11-22T03:35:38.567Z,95115.91
2018-11-22T03:38:06.666Z,95117.04
2018-11-22T03:40:35.418Z,95115.58
2018-11-22T03:43:03.994Z,95120.23
2018-11-22T03:45:32.439Z,95120.06
2018-11-22T03:48:00.551Z,95112.16
2018-11-22T03:50:29.250Z,95116.65
2018-11-22T03:52:57.619Z,95109.02
2018-11-22T03:55:25.808Z,95112.48
2018-11-22T03:57:54.500Z,95110.19
2018-11-22T04:00:24.041Z,95107.27
2018-11-22T04:02:52.727Z,95107.06
2018-11-22T04:05:22.394Z,95109.13
2018-11-22T04:07:50.529Z,95111.70
2018-11-22T04:10:20.094Z,95114.23
2018-11-22T04:12:48.258Z,95108.89
2018-11-22T04:15:16.428Z,95116.22
2018-11-22T04:17:44.541Z,95111.67
2018-11-22T04:20:17.011Z,95113.70
2018-11-22T04:22:45.127Z,95116.23
2018-11-22T04:25:13.904Z,95116.01
2018-11-22T04:27:42.200Z,95116.09
2018-11-22T04:30:27.284Z,95112.45
2018-11-22T04:32:55.429Z,95113.34
2018-11-22T04:35:23.847Z,95118.22
2018-11-22T04:37:52.068Z,95118.17
2018-11-22T04:40:21.372Z,95114.67
2018-11-22T04:42:50.037Z,95117.92
2018-11-22T04:45:18.403Z,95120.66
2018-11-22T04:47:47.189Z,95114.64
2018-11-22T04:50:16.727Z,95120.85
2018-11-22T04:52:44.866Z,95121.05
2018-11-22T04:55:12.929Z,95120.59
2018-11-22T04:57:41.026Z,95126.90
2018-11-22T05:00:11.006Z,95123.42
2018-11-22T05:02:39.059Z,95124.62
2018-11-22T05:05:08.626Z,95125.95
2018-11-22T05:07:37.053Z,95125.53
2018-11-22T05:10:06.714Z,95126.20
2018-11-22T05:12:34.857Z,95127.34
2018-11-22T05:15:02.905Z,95122.50
2018-11-22T05:17:30.933Z,95119.08
2018-11-22T05:19:59.065Z,95122.75
2018-11-22T05:22:27.100Z,95117.38
2018-11-22T05:24:55.377Z,95119.00
2018-11-22T05:27:23.573Z,95118.64
2018-11-22T05:29:51.607Z,95118.70
2018-11-22T05:32:19.639Z,95115.92
2018-11-22T05:34:47.746Z,95114.55
2018-11-22T05:37:15.803Z,95115.81
2018-11-22T05:39:43.854Z,95124.95
2018-11-22T05:42:11.983Z,95124.37
2018-11-22T05:44:40.142Z,95123.91
2018-11-22T05:47:08.155Z,95123.49
2018-11-22T05:49:36.304Z,95125.01
2018-11-22T05:52:04.347Z,95129.11
2018-11-22T05:54:32.398Z,95126.98
2018-11-22T05:57:00.542Z,95122.13
2018-11-22T12:17:13.756Z,95153.00
2018-11-22T12:19:42.221Z,95160.62
2018-11-22T12:22:10.683Z,95150.93
2018-11-22T12:24:39.188Z,95157.66
2018-11-22T12:27:07.736Z,95153.33
2018-11-22T12:29:36.180Z,95150.73
2018-11-22T12:32:10.712Z,95154.79
2018-11-22T12:34:44.417Z,95149.60
2018-11-22T12:37:17.849Z,95150.88
2018-11-22T12:39:46.502Z,95149.16
2018-11-22T12:42:14.973Z,95141.11
2018-11-22T12:44:43.516Z,95141.86
2018-11-22T12:47:11.912Z,95142.77
2018-11-22T12:49:40.361Z,95138.44
2018-11-22T12:52:08.765Z,95139.37
2018-11-22T12:54:37.236Z,95139.58
2018-11-22T12:57:05.753Z,95135.93
2018-11-22T12:59:34.205Z,95140.05
2018-11-22T13:02:02.687Z,95136.26
2018-11-22T13:04:31.218Z,95142.94
2018-11-22T13:06:59.662Z,95138.45
2018-11-22T13:09:28.104Z,95138.78
2018-11-22T13:11:57.487Z,95138.23
2018-11-22T13:14:25.912Z,95134.34
2018-11-22T13:16:54.375Z,95129.10
2018-11-22T13:19:22.959Z,95133.05
2018-11-22T13:21:51.392Z,95131.21
2018-11-22T13:24:19.839Z,95134.80
2018-11-22T13:26:48.355Z,95133.34
2018-11-22T13:29:16.776Z,95134.37
2018-11-22T13:31:45.212Z,95135.16
2018-11-22T13:34:13.707Z,95134.20
2018-11-22T13:36:42.320Z,95141.86
2018-11-22T13:39:11.543Z,95138.34
2018-11-22T13:41:40.050Z,95140.06
2018-11-22T13:44:08.644Z,95132.07
2018-11-22T13:46:37.120Z,95137.72
2018-11-22T13:49:05.853Z,95142.64
2018-11-22T13:51:34.352Z,95139.72
2018-11-22T13:54:02.902Z,95135.36
2018-11-22T13:56:31.375Z,95129.70
2018-11-22T13:58:59.946Z,95139.58
2018-11-22T14:01:28.330Z,95138.59
2018-11-22T14:03:56.979Z,95143.22
2018-11-22T14:06:25.480Z,95136.18
2018-11-22T14:08:53.969Z,95130.72
2018-11-22T14:11:22.427Z,95138.47
2018-11-22T14:13:51.148Z,95145.31
2018-11-22T14:16:19.640Z,95149.88
2018-11-22T14:18:48.084Z,95137.67
2018-11-22T14:21:16.586Z,95145.95
2018-11-22T14:23:45.164Z,95135.80
2018-11-22T14:26:13.600Z,95143.50
2018-11-22T14:28:42.172Z,95132.18
2018-11-22T14:31:10.676Z,95140.16
2018-11-22T14:33:39.219Z,95136.48
2018-11-22T14:36:07.699Z,95144.08
2018-11-22T14:38:36.370Z,95140.86
2018-11-22T14:41:05.092Z,95137.44
2018-11-22T14:43:33.525Z,95135.59
2018-11-22T14:46:01.988Z,95135.70
2018-11-22T14:48:30.470Z,95138.92
2018-11-22T14:51:42.928Z,95140.14
2018-11-22T14:54:11.399Z,95144.95
2018-11-22T14:56:40.416Z,95147.94
2018-11-22T14:59:08.907Z,95157.38
2018-11-22T15:01:37.614Z,95150.70
2018-11-22T15:04:06.230Z,95154.06
2018-11-22T15:06:34.670Z,95150.08
2018-11-22T15:09:03.202Z,95153.71
2018-11-22T15:11:31.616Z,95150.19
2018-11-22T15:14:00.061Z,95152.46
2018-11-22T15:16:28.543Z,95154.91
2018-11-22T15:18:56.989Z,95148.54
2018-11-22T15:21:25.527Z,95162.41
2018-11-22T15:23:54.092Z,95156.05
2018-11-22T15:26:22.511Z,95155.17
2018-11-22T15:28:50.826Z,95154.40
2018-11-22T15:31:19.329Z,95158.67
2018-11-22T15:33:47.799Z,95155.05
2018-11-22T15:36:16.255Z,95159.09
2018-11-22T15:38:44.727Z,95163.83
2018-11-22T15:41:13.128Z,95158.77
2018-11-22T15:43:41.522Z,95154.99
2018-11-22T15:46:09.944Z,95153.22
2018-11-22T15:48:41.163Z,95160.84
2018-11-22T15:51:09.737Z,95153.87
2018-11-22T15:53:38.168Z,95156.09
2018-11-22T15:56:06.668Z,95159.31
2018-11-22T15:58:35.156Z,95160.90
2018-11-22T16:01:03.625Z,95159.71
2018-11-22T16:03:33.182Z,95156.55
2018-11-22T16:06:01.642Z,95164.91
2018-11-22T16:08:29.992Z,95159.88
2018-11-22T16:10:58.418Z,95163.16
2018-11-22T16:13:27.078Z,95165.64
2018-11-22T16:15:55.472Z,95162.20
2018-11-22T16:18:24.029Z,95176.22
2018-11-22T16:20:52.428Z,95170.31
2018-11-22T16:23:20.847Z,95172.72
2018-11-22T16:25:49.192Z,95169.83
2018-11-22T16:28:17.517Z,95170.86
2018-11-22T16:30:46.027Z,95175.81
2018-11-22T16:33:14.382Z,95172.53
2018-11-22T16:35:42.764Z,95161.01
2018-11-22T16:38:11.136Z,95165.36
2018-11-22T16:40:39.456Z,95167.14
2018-11-22T16:43:07.788Z,95164.83
2018-11-22T16:45:37.125Z,95163.39
2018-11-22T16:48:07.333Z,95163.13
2018-11-22T16:50:36.662Z,95161.23
2018-11-22T16:53:05.212Z,95161.66
2018-11-22T16:55:33.573Z,95162.16
2018-11-22T16:58:02.641Z,95155.63
2018-11-22T17:00:32.952Z,95162.09
2018-11-22T17:03:02.821Z,95157.80
2018-11-22T17:05:31.454Z,95155.16
2018-11-22T17:08:00.505Z,95156.30
2018-11-22T17:10:29.915Z,95154.35
2018-11-22T17:12:59.383Z,95162.45
2018-11-22T17:15:30.244Z,95162.23
2018-11-22T17:17:59.064Z,95173.78
2018-11-22T17:20:28.403Z,95166.99
2018-11-22T17:22:56.861Z,95166.38
2018-11-22T17:25:26.447Z,95166.48
2018-11-22T17:27:56.304Z,95168.45
2018-11-22T17:30:27.028Z,95166.58
2018-11-22T17:32:55.548Z,95164.23
2018-11-22T17:35:25.136Z,95172.61
2018-11-22T17:37:54.630Z,95174.15
2018-11-22T17:40:26.163Z,95174.11
2018-11-22T17:42:54.725Z,95180.33
2018-11-22T17:45:53.423Z,95189.31
2018-11-22T17:48:21.765Z,95187.47
2018-11-22T17:50:50.373Z,95194.13
2018-11-22T17:53:18.706Z,95189.91
2018-11-22T17:55:47.039Z,95191.69
2018-11-22T17:58:15.676Z,95185.95
2018-11-22T18:00:53.131Z,95188.77
2018-11-22T18:03:21.592Z,95189.67
2018-11-22T18:05:50.487Z,95185.66
2018-11-22T18:08:18.796Z,95184.83
2018-11-22T18:10:48.767Z,95185.96
2018-11-22T18:13:17.189Z,95181.11
2018-11-22T18:15:50.859Z,95186.60
2018-11-22T18:18:19.206Z,95184.84
2018-11-22T18:20:47.643Z,95187.42
2018-11-22T18:23:15.978Z,95192.53
2018-11-22T18:25:48.939Z,95190.87
2018-11-22T18:28:12.644Z,95193.97
2018-11-22T18:30:40.977Z,95187.05
2018-11-22T18:33:09.667Z,95185.39
2018-11-22T18:35:37.979Z,95194.81
2018-11-22T18:38:06.380Z,95193.08
2018-11-22T18:40:36.354Z,95200.16
2018-11-22T18:43:05.141Z,95191.14
2018-11-22T18:45:35.679Z,95183.77
2018-11-22T18:48:04.863Z,95191.71
2018-11-22T18:50:34.070Z,95194.96
2018-11-22T18:53:02.453Z,95198.09
2018-11-22T18:55:31.181Z,95189.95
2018-11-22T18:57:59.520Z,95199.66
2018-11-22T19:00:29.858Z,95203.80
2018-11-22T19:02:59.513Z,95203.12
2018-11-22T19:05:27.905Z,95204.61
2018-11-22T19:07:56.883Z,95198.55
2018-11-22T19:10:26.549Z,95201.28
2018-11-22T19:12:56.261Z,95199.77
2018-11-22T19:15:26.076Z,95208.79
2018-11-22T19:17:54.838Z,95208.67
2018-11-22T19:20:25.451Z,95202.46
2018-11-22T19:22:54.438Z,95211.59
2018-11-22T19:25:23.309Z,95213.25
2018-11-22T19:27:52.021Z,95210.41
2018-11-22T19:30:22.916Z,95212.66
2018-11-22T19:32:52.245Z,95220.19
2018-11-22T19:35:22.169Z,95220.67
2018-11-22T19:37:50.872Z,95221.33
2018-11-22T19:40:24.859Z,95210.47
2018-11-22T19:42:54.433Z,95212.19
2018-11-22T19:45:24.119Z,95222.97
2018-11-22T19:47:52.443Z,95221.44
2018-11-22T19:50:22.268Z,95232.31
2018-11-22T19:52:51.103Z,95225.70
2018-11-22T19:55:22.869Z,95222.41
2018-11-22T19:57:52.855Z,95217.98
2018-11-22T20:00:21.931Z,95225.89
2018-11-22T20:02:51.053Z,95222.70
2018-11-22T20:05:20.233Z,95231.37
2018-11-22T20:07:50.331Z,95224.35
2018-11-22T20:10:20.384Z,95222.30
2018-11-22T20:12:48.876Z,95226.55
2018-11-22T20:15:17.285Z,95228.05
2018-11-22T20:17:46.614Z,95238.33
2018-11-22T20:20:16.112Z,95239.20
2018-11-22T20:22:44.630Z,95237.81
2018-11-22T20:25:13.062Z,95234.50
2018-11-22T20:27:43.064Z,95230.24
2018-11-22T20:30:15.025Z,95235.52
2018-11-22T20:32:43.498Z,95232.22
2018-11-22T20:35:13.613Z,95230.61
2018-11-22T20:37:42.361Z,95235.49
2018-11-22T20:40:11.955Z,95236.62
2018-11-22T20:42:40.899Z,95223.75
2018-11-22T20:45:11.047Z,95234.77
2018-11-22T20:47:40.222Z,95237.72
2018-11-22T20:50:10.596Z,95234.95
2018-11-22T20:52:39.031Z,95238.76
2018-11-22T20:55:09.636Z,95239.16
2018-11-22T20:57:38.065Z,95245.02
2018-11-22T21:00:09.372Z,95232.53
2018-11-22T21:02:37.849Z,95240.62
2018-11-22T21:05:07.315Z,95235.95
2018-11-22T21:07:35.805Z,95233.95
2018-11-22T21:10:04.564Z,95234.58
2018-11-22T21:12:33.031Z,95235.91
2018-11-22T21:15:01.446Z,95238.88
2018-11-22T21:17:29.871Z,95234.80
2018-11-22T21:19:58.380Z,95231.86
2018-11-22T21:22:26.860Z,95238.75
2018-11-22T21:24:55.335Z,95226.82
2018-11-22T21:27:23.795Z,95231.59
2018-11-22T21:29:52.303Z,95226.50
2018-11-22T21:32:20.760Z,95228.63
2018-11-22T21:34:49.242Z,95228.31
2018-11-22T21:37:17.672Z,95228.00
2018-11-22T21:39:46.075Z,95224.69
2018-11-22T21:42:14.533Z,95229.16
2018-11-22T21:44:43.024Z,95217.05
2018-11-22T21:47:11.460Z,95215.37
2018-11-22T21:49:39.907Z,95218.07
2018-11-22T21:52:08.373Z,95220.11
2018-11-22T21:54:37.705Z,95215.59
2018-11-22T21:57:06.118Z,95219.70
2018-11-22T21:59:34.534Z,95209.20
2018-11-22T22:02:02.965Z,95212.32
2018-11-22T22:04:31.404Z,95207.85
2018-11-22T22:06:59.836Z,95206.81
2018-11-22T22:09:28.295Z,95209.75
2018-11-22T22:11:56.710Z,95203.63
2018-11-22T22:14:25.169Z,95204.13
2018-11-22T22:16:53.750Z,95199.48
2018-11-22T22:19:22.189Z,95200.96
2018-11-22T22:21:50.683Z,95196.31
2018-11-22T22:24:19.384Z,95199.50
2018-11-22T22:26:47.843Z,95196.28
2018-11-22T22:29:16.459Z,95200.05
2018-11-22T22:31:44.881Z,95199.64
2018-11-22T22:34:13.323Z,95199.95
2018-11-22T22:36:41.782Z,95201.16
2018-11-22T22:39:11.528Z,95201.38
2018-11-22T22:41:40.052Z,95199.00
2018-11-22T22:44:08.523Z,95192.37
2018-11-22T22:46:36.956Z,95195.59
2018-11-22T22:49:05.444Z,95190.27
2018-11-22T22:51:33.893Z,95189.99
2018-11-22T22:54:02.355Z,95191.97
2018-11-22T22:56:30.743Z,95187.94
2018-11-22T22:58:59.134Z,95188.62
2018-11-22T23:01:27.599Z,95184.86
2018-11-22T23:03:55.992Z,95186.59
2018-11-22T23:06:24.371Z,95183.66
2018-11-22T23:08:52.752Z,95183.58
2018-11-22T23:11:21.179Z,95177.96
2018-11-22T23:13:49.919Z,95184.81
2018-11-22T23:16:18.329Z,95173.25
2018-11-22T23:18:46.703Z,95174.64
2018-11-22T23:21:15.128Z,95174.77
2018-11-22T23:23:43.547Z,95173.88
2018-11-22T23:26:11.996Z,95175.81
2018-11-22T23:28:40.636Z,95166.67
2018-11-22T23:31:09.019Z,95176.30
2018-11-22T23:33:37.430Z,95169.76
2018-11-22T23:36:05.938Z,95175.87
2018-11-22T23:38:34.408Z,95176.13
2018-11-22T23:41:02.795Z,95173.81
2018-11-22T23:43:31.157Z,95175.66
2018-11-22T23:45:59.572Z,95171.59
2018-11-22T23:48:28.013Z,95174.21
2018-11-22T23:50:56.876Z,95173.72
2018-11-22T23:53:25.254Z,95177.66
2018-11-22T23:55:53.700Z,95176.75
2018-11-22T23:58:22.108Z,95179.06
